createdAt,value
2023-03-15T00:06:14.080Z,11.30
2023-03-15T00:16:18.670Z,11.20
2023-03-15T00:26:24.093Z,11.10
2023-03-15T00:36:28.336Z,11.00
2023-03-15T00:46:33.505Z,11.10
2023-03-15T00:56:38.639Z,11.00
2023-03-15T01:06:43.685Z,11.20
2023-03-15T01:16:47.490Z,11.00
2023-03-15T01:26:52.602Z,11.30
2023-03-15T01:36:56.500Z,11.20
2023-03-15T01:47:01.724Z,11.20
2023-03-15T01:57:10.068Z,11.50
2023-03-15T02:07:18.095Z,11.30
2023-03-15T02:17:26.991Z,11.60
2023-03-15T02:27:34.737Z,11.70
2023-03-15T02:37:38.591Z,12.10
2023-03-15T02:47:44.481Z,12.40
2023-03-15T02:57:48.971Z,12.60
2023-03-15T03:07:53.992Z,12.80
2023-03-15T03:17:57.542Z,12.90
2023-03-15T03:28:04.520Z,13.10
2023-03-15T03:38:08.563Z,13.20
2023-03-15T03:48:13.829Z,13.20
2023-03-15T03:58:17.648Z,13.30
2023-03-15T04:08:22.931Z,13.20
2023-03-15T04:18:26.998Z,13.00
2023-03-15T04:28:32.091Z,12.70
2023-03-15T04:38:35.950Z,12.20
2023-03-15T04:48:41.857Z,11.90
2023-03-15T04:58:45.616Z,11.60
2023-03-15T05:08:51.424Z,11.50
2023-03-15T05:18:57.012Z,11.80
2023-03-15T05:29:02.181Z,11.90
2023-03-15T05:39:06.288Z,12.10
2023-03-15T05:49:11.477Z,12.10
2023-03-15T05:59:15.203Z,11.80
2023-03-15T06:09:20.611Z,11.60
2023-03-15T06:19:25.270Z,11.70
2023-03-15T06:29:30.534Z,11.90
2023-03-15T06:39:35.823Z,12.00
2023-03-15T06:49:41.381Z,12.00
2023-03-15T06:59:45.220Z,12.10
2023-03-15T07:09:50.579Z,12.00
2023-03-15T07:19:56.860Z,12.00
2023-03-15T07:30:02.423Z,12.20
2023-03-15T07:40:10.074Z,12.50
2023-03-15T07:50:18.220Z,12.90
2023-03-15T08:00:23.282Z,12.90
2023-03-15T08:10:28.950Z,13.50
2023-03-15T08:20:34.614Z,14.20
2023-03-15T08:30:39.866Z,14.30
2023-03-15T08:40:43.674Z,14.60
2023-03-15T08:50:48.944Z,14.90
2023-03-15T09:00:53.184Z,15.50
2023-03-15T09:10:58.871Z,15.70
2023-03-15T09:21:02.775Z,16.40
2023-03-15T09:31:08.791Z,15.90
2023-03-15T09:41:21.288Z,15.90
2023-03-15T09:51:35.958Z,16.10
2023-03-15T10:01:41.979Z,16.40
2023-03-15T10:11:55.162Z,16.50
2023-03-15T10:22:04.990Z,16.80
2023-03-15T10:32:18.148Z,17.00
2023-03-15T10:42:40.204Z,16.90
2023-03-15T10:52:47.668Z,17.20
2023-03-15T11:03:01.933Z,17.60
2023-03-15T11:13:15.117Z,17.80
2023-03-15T11:23:22.780Z,18.40
2023-03-15T11:33:39.298Z,18.30
2023-03-15T11:43:51.863Z,19.50
2023-03-15T11:54:07.760Z,20.00
2023-03-15T12:04:45.738Z,20.30
2023-03-15T12:15:04.132Z,20.80
2023-03-15T12:25:15.891Z,21.20
2023-03-15T12:35:23.396Z,21.50
2023-03-15T12:45:46.871Z,21.30
2023-03-15T12:55:59.462Z,21.60
2023-03-15T13:06:17.647Z,21.40
2023-03-15T13:16:30.256Z,22.00
2023-03-15T13:26:51.797Z,22.90
2023-03-15T13:36:59.024Z,22.90
2023-03-15T13:47:02.993Z,23.40
2023-03-15T13:57:12.659Z,22.80
2023-03-15T14:07:27.919Z,22.90
2023-03-15T14:17:33.781Z,22.60
2023-03-15T14:27:37.741Z,24.20
2023-03-15T14:37:44.469Z,23.70
2023-03-15T14:47:57.232Z,24.20
2023-03-15T14:58:03.527Z,24.10
2023-03-15T15:08:13.166Z,23.50
2023-03-15T15:18:21.057Z,23.50
2023-03-15T15:28:34.790Z,23.20
2023-03-15T15:38:41.533Z,22.70
2023-03-15T15:48:46.132Z,22.90
2023-03-15T15:58:51.441Z,21.90
2023-03-15T16:08:56.893Z,23.00
2023-03-15T16:19:02.130Z,21.50
2023-03-15T16:29:15.259Z,20.10
2023-03-15T16:39:22.027Z,19.50
2023-03-15T16:49:26.249Z,18.30
2023-03-15T16:59:32.176Z,18.30
2023-03-15T17:09:36.129Z,17.70
2023-03-15T17:19:41.719Z,17.30
2023-03-15T17:29:45.852Z,16.90
2023-03-15T17:39:51.208Z,16.40
2023-03-15T17:49:55.288Z,16.20
2023-03-15T18:00:00.680Z,16.00
2023-03-15T18:10:04.364Z,15.80
2023-03-15T18:20:12.403Z,15.60
2023-03-15T18:30:21.841Z,15.50
2023-03-15T18:40:29.562Z,15.40
2023-03-15T18:50:33.856Z,15.10
2023-03-15T19:00:39.114Z,15.00
2023-03-15T19:10:44.852Z,14.90
